Terminal Aerodrome Forecast
Issued by NWS Medford, OR

Home | Current Version | Previous Version | Text Only | Print | Product List | Glossary On
Versions: 1 2 3 4 5 6 7 8 9 10 11 12 13 14
457
FTUS46 KMFR 171720
TAFMFR
TAF
KMFR 171720Z 1718/1818 VRB03KT 6SM HZ FU SKC
     FM172200 30006KT 5SM FU SKC
     FM180500 VRB02KT P6SM SKC=

USA.gov is the U.S. government's official web portal to all federal, state and local government web resources and services.